createdAt,value
2022-10-07T00:00:09.027Z,51.68
2022-10-07T00:03:10.579Z,51.73
2022-10-07T00:06:17.250Z,51.66
2022-10-07T00:09:18.746Z,51.79
2022-10-07T00:12:21.035Z,51.81
2022-10-07T00:15:23.668Z,51.90
2022-10-07T00:18:25.185Z,51.73
2022-10-07T00:21:29.404Z,51.79
2022-10-07T00:24:30.977Z,51.86
2022-10-07T00:27:32.511Z,51.82
2022-10-07T00:30:34.129Z,51.85
2022-10-07T00:33:37.944Z,51.80
2022-10-07T00:36:39.673Z,51.94
2022-10-07T00:39:41.219Z,51.78
2022-10-07T00:42:42.899Z,51.92
2022-10-07T00:45:44.495Z,51.89
2022-10-07T00:48:46.960Z,52.07
2022-10-07T00:51:50.572Z,51.94
2022-10-07T00:54:55.028Z,52.00
2022-10-07T00:58:01.783Z,52.10
2022-10-07T01:01:03.955Z,51.97
2022-10-07T01:04:05.680Z,52.11
2022-10-07T01:07:07.323Z,52.09
2022-10-07T01:10:11.968Z,52.13
2022-10-07T01:13:32.145Z,52.08
2022-10-07T01:16:39.779Z,52.25
2022-10-07T01:19:53.237Z,52.12
2022-10-07T01:23:20.884Z,52.27
2022-10-07T01:26:31.388Z,52.37
2022-10-07T01:29:39.323Z,52.12
2022-10-07T01:32:47.899Z,52.26
2022-10-07T01:35:51.106Z,52.36
2022-10-07T01:39:08.956Z,52.23
2022-10-07T01:42:11.368Z,52.20
2022-10-07T01:45:17.072Z,52.40
2022-10-07T01:48:18.651Z,52.36
2022-10-07T01:51:28.340Z,52.27
2022-10-07T01:54:47.542Z,52.37
2022-10-07T01:58:10.142Z,52.42
2022-10-07T02:01:19.554Z,52.37
2022-10-07T02:04:35.579Z,52.45
2022-10-07T02:07:50.825Z,52.30
2022-10-07T02:11:01.766Z,52.40
2022-10-07T02:14:21.780Z,52.32
2022-10-07T02:17:27.279Z,52.47
2022-10-07T02:20:32.513Z,52.36
2022-10-07T02:23:37.623Z,52.33
2022-10-07T02:26:41.647Z,52.33
2022-10-07T02:29:46.001Z,52.51
2022-10-07T02:32:59.117Z,52.46
2022-10-07T02:36:05.809Z,52.39
2022-10-07T02:39:08.062Z,52.58
2022-10-07T02:42:27.961Z,52.39
2022-10-07T02:45:40.576Z,52.51
2022-10-07T02:48:52.259Z,52.46
2022-10-07T02:51:56.732Z,52.57
2022-10-07T02:55:08.423Z,52.41
2022-10-07T02:58:12.854Z,52.42
2022-10-07T03:01:23.317Z,52.59
2022-10-07T03:04:25.204Z,52.57
2022-10-07T03:07:27.253Z,52.67
2022-10-07T03:10:31.712Z,52.51
2022-10-07T03:13:35.276Z,52.53
2022-10-07T03:16:36.786Z,52.55
2022-10-07T03:19:38.319Z,52.53
2022-10-07T03:22:39.865Z,52.67
2022-10-07T03:25:41.390Z,52.77
2022-10-07T03:28:43.035Z,52.76
2022-10-07T03:31:44.619Z,52.46
2022-10-07T03:34:46.253Z,52.62
2022-10-07T03:37:48.218Z,52.73
2022-10-07T03:40:49.954Z,52.51
2022-10-07T03:43:51.612Z,52.66
2022-10-07T03:46:53.277Z,52.82
2022-10-07T03:49:55.306Z,52.71
2022-10-07T03:52:56.832Z,52.63
2022-10-07T03:55:58.502Z,52.75
2022-10-07T03:59:00.889Z,52.59
2022-10-07T04:02:02.442Z,52.63
2022-10-07T04:05:04.378Z,52.72
2022-10-07T04:08:05.941Z,52.68
2022-10-07T04:11:07.512Z,52.87
2022-10-07T04:14:09.371Z,52.70
2022-10-07T04:17:10.926Z,52.69
2022-10-07T04:20:13.499Z,52.76
2022-10-07T04:23:15.992Z,52.67
2022-10-07T04:26:17.569Z,52.67
2022-10-07T04:29:19.182Z,52.57
2022-10-07T04:32:23.147Z,52.77
2022-10-07T04:35:24.895Z,52.86
2022-10-07T04:38:28.421Z,52.96
2022-10-07T04:41:30.167Z,53.00
2022-10-07T04:44:31.682Z,52.77
2022-10-07T04:47:35.660Z,52.85
2022-10-07T04:50:40.519Z,52.83
2022-10-07T04:53:42.191Z,52.84
2022-10-07T04:56:43.743Z,53.00
2022-10-07T04:59:45.299Z,52.86
2022-10-07T05:02:50.432Z,53.10
2022-10-07T05:05:54.791Z,52.96
2022-10-07T05:08:56.735Z,52.73
2022-10-07T05:11:58.273Z,53.02
2022-10-07T05:15:01.668Z,52.82
2022-10-07T05:18:03.969Z,53.02
2022-10-07T05:21:07.377Z,52.90
2022-10-07T05:24:09.160Z,53.10
2022-10-07T05:27:10.753Z,53.00
2022-10-07T05:30:12.773Z,53.00
2022-10-07T05:33:14.321Z,53.08
2022-10-07T05:36:15.877Z,53.20
2022-10-07T05:39:17.373Z,53.12
2022-10-07T05:42:19.064Z,52.96
2022-10-07T05:45:20.667Z,53.14
2022-10-07T05:48:22.193Z,53.13
2022-10-07T05:51:25.165Z,53.26
2022-10-07T05:54:26.756Z,53.33
2022-10-07T05:57:28.428Z,53.21
2022-10-07T06:00:29.965Z,53.17
2022-10-07T06:03:31.526Z,53.36
2022-10-07T06:06:35.503Z,53.28
2022-10-07T06:09:55.629Z,53.22
2022-10-07T06:13:09.016Z,53.38
2022-10-07T06:16:10.574Z,53.27
2022-10-07T06:19:22.663Z,53.22
2022-10-07T06:22:24.432Z,53.22
2022-10-07T06:25:26.020Z,53.24
2022-10-07T06:28:32.980Z,53.17
2022-10-07T06:31:34.942Z,53.47
2022-10-07T06:34:36.873Z,53.33
2022-10-07T06:37:39.333Z,53.34
2022-10-07T06:40:40.944Z,53.43
2022-10-07T06:43:43.009Z,53.43
2022-10-07T06:46:44.593Z,53.38
2022-10-07T06:49:46.110Z,53.30
2022-10-07T06:52:47.692Z,53.38
2022-10-07T06:55:51.687Z,53.29
2022-10-07T06:58:53.298Z,53.32
2022-10-07T07:01:54.912Z,53.27
2022-10-07T07:04:58.086Z,53.32
2022-10-07T07:07:59.686Z,53.43
2022-10-07T07:11:06.195Z,53.35
2022-10-07T07:14:10.208Z,53.18
2022-10-07T07:17:12.065Z,53.34
2022-10-07T07:20:14.558Z,53.27
2022-10-07T07:23:16.223Z,53.29
2022-10-07T07:26:18.540Z,53.24
2022-10-07T07:29:20.547Z,53.28
2022-10-07T07:32:22.144Z,53.30
2022-10-07T07:35:25.518Z,53.44
2022-10-07T07:38:27.609Z,53.29
2022-10-07T07:41:31.924Z,53.18
2022-10-07T07:44:34.884Z,53.28
2022-10-07T07:47:36.718Z,53.31
2022-10-07T07:50:40.302Z,53.29
2022-10-07T07:53:41.878Z,53.34
2022-10-07T07:56:43.494Z,53.36
2022-10-07T07:59:44.992Z,53.35
2022-10-07T08:02:46.791Z,53.29
2022-10-07T08:05:48.885Z,53.31
2022-10-07T08:08:52.072Z,53.33
2022-10-07T08:11:53.606Z,53.42
2022-10-07T08:14:55.186Z,53.25
2022-10-07T08:17:56.737Z,53.22
2022-10-07T08:21:00.534Z,53.44
2022-10-07T08:24:04.612Z,53.28
2022-10-07T08:27:06.124Z,53.28
2022-10-07T08:30:08.789Z,53.31
2022-10-07T08:33:10.340Z,53.22
2022-10-07T08:36:14.778Z,53.17
2022-10-07T08:39:16.389Z,53.20
2022-10-07T08:42:38.924Z,53.35
2022-10-07T08:45:40.561Z,53.24
2022-10-07T08:48:45.883Z,53.09
2022-10-07T08:51:54.038Z,53.17
2022-10-07T08:54:55.767Z,53.24
2022-10-07T08:58:09.389Z,53.12
2022-10-07T09:01:32.678Z,53.12
2022-10-07T09:04:37.321Z,52.99
2022-10-07T09:07:51.917Z,53.15
2022-10-07T09:10:56.005Z,53.07
2022-10-07T09:14:13.848Z,53.12
2022-10-07T09:17:35.159Z,53.02
2022-10-07T09:20:43.664Z,53.07
2022-10-07T09:23:46.807Z,53.01
2022-10-07T09:26:48.499Z,52.85
2022-10-07T09:29:51.489Z,52.90
2022-10-07T09:32:54.721Z,52.87
2022-10-07T09:35:58.843Z,52.82
2022-10-07T09:39:16.129Z,52.79
2022-10-07T09:42:24.788Z,53.19
2022-10-07T09:45:33.569Z,52.65
2022-10-07T09:48:35.096Z,52.84
2022-10-07T09:51:36.706Z,52.69
2022-10-07T09:54:38.264Z,52.50
2022-10-07T09:57:40.516Z,52.66
2022-10-07T10:00:45.269Z,52.60
2022-10-07T10:03:46.976Z,52.21
2022-10-07T10:06:50.889Z,52.17
2022-10-07T10:09:55.799Z,52.55
2022-10-07T10:13:00.072Z,52.23
2022-10-07T10:16:03.894Z,52.32
2022-10-07T10:19:22.927Z,52.42
2022-10-07T10:22:30.150Z,52.33
2022-10-07T10:26:09.440Z,52.01
2022-10-07T10:29:39.300Z,52.00
2022-10-07T10:32:48.990Z,51.83
2022-10-07T10:35:56.253Z,51.58
2022-10-07T10:39:15.177Z,51.83
2022-10-07T10:42:22.895Z,51.63
2022-10-07T10:45:33.674Z,51.68
2022-10-07T10:48:53.498Z,51.78
2022-10-07T10:52:13.461Z,51.62
2022-10-07T10:55:23.465Z,51.33
2022-10-07T10:59:20.741Z,51.33
2022-10-07T11:02:36.439Z,51.36
2022-10-07T11:05:40.507Z,51.39
2022-10-07T11:08:42.048Z,51.24
2022-10-07T11:11:44.952Z,51.23
2022-10-07T11:14:55.725Z,51.22
2022-10-07T11:18:06.593Z,50.82
2022-10-07T11:21:22.207Z,50.85
2022-10-07T11:24:32.166Z,51.05
2022-10-07T11:27:35.371Z,50.94
2022-10-07T11:30:48.832Z,50.63
2022-10-07T11:34:01.264Z,50.58
2022-10-07T11:37:13.817Z,51.04
2022-10-07T11:40:16.551Z,50.73
2022-10-07T11:43:25.563Z,50.64
2022-10-07T11:46:39.517Z,50.71
2022-10-07T11:49:55.737Z,50.42
2022-10-07T11:53:06.477Z,50.56
2022-10-07T11:56:20.403Z,50.61
2022-10-07T11:59:45.980Z,50.44
2022-10-07T12:02:49.144Z,50.32
2022-10-07T12:05:50.940Z,50.32
2022-10-07T12:08:53.733Z,50.13
2022-10-07T12:11:56.708Z,50.41
2022-10-07T12:15:01.484Z,50.41
2022-10-07T12:18:05.993Z,50.34
2022-10-07T12:21:08.457Z,50.21
2022-10-07T12:24:15.029Z,49.99
2022-10-07T12:27:21.142Z,50.10
2022-10-07T12:30:39.608Z,50.12
2022-10-07T12:33:44.242Z,50.18
2022-10-07T12:36:45.792Z,50.17
2022-10-07T12:39:47.748Z,49.92
2022-10-07T12:42:57.996Z,49.67
2022-10-07T12:46:00.843Z,50.08
2022-10-07T12:49:14.724Z,49.80
2022-10-07T12:52:23.486Z,49.90
2022-10-07T12:55:38.162Z,49.60
2022-10-07T12:59:04.028Z,49.67
2022-10-07T13:02:42.806Z,49.67
2022-10-07T13:06:18.189Z,49.72
2022-10-07T13:09:25.449Z,49.86
2022-10-07T13:12:43.399Z,49.84
2022-10-07T13:15:48.157Z,49.81
2022-10-07T13:19:00.387Z,49.50
2022-10-07T13:22:12.680Z,49.39
2022-10-07T13:25:17.510Z,49.66
2022-10-07T13:28:27.017Z,49.58
2022-10-07T13:31:33.424Z,49.48
2022-10-07T13:34:35.473Z,49.58
2022-10-07T13:37:38.204Z,49.50
2022-10-07T13:40:39.933Z,49.49
2022-10-07T13:43:44.550Z,49.51
2022-10-07T13:46:55.529Z,49.43
2022-10-07T13:49:58.516Z,49.35
2022-10-07T13:53:01.108Z,49.72
2022-10-07T13:56:08.968Z,49.34
2022-10-07T13:59:18.513Z,49.50
2022-10-07T14:02:20.777Z,49.46
2022-10-07T14:05:29.323Z,49.42
2022-10-07T14:08:31.390Z,49.50
2022-10-07T14:11:32.982Z,49.32
2022-10-07T14:14:38.052Z,49.45
2022-10-07T14:17:44.181Z,49.51
2022-10-07T14:20:55.319Z,49.45
2022-10-07T14:23:56.898Z,49.51
2022-10-07T14:26:58.454Z,49.33
2022-10-07T14:30:01.468Z,49.29
2022-10-07T14:33:33.219Z,49.39
2022-10-07T14:36:36.159Z,49.33
2022-10-07T14:39:37.822Z,49.36
2022-10-07T14:42:39.468Z,49.36
2022-10-07T14:45:42.091Z,49.29
2022-10-07T14:48:44.124Z,49.30
2022-10-07T14:51:46.352Z,49.41
2022-10-07T14:54:49.115Z,49.14
2022-10-07T14:57:50.682Z,49.37
2022-10-07T15:00:52.640Z,49.34
2022-10-07T15:03:54.256Z,49.25
2022-10-07T15:06:55.920Z,49.35
2022-10-07T15:09:57.524Z,49.33
2022-10-07T15:12:59.523Z,49.29
2022-10-07T15:16:01.081Z,49.30
2022-10-07T15:19:03.127Z,49.26
2022-10-07T15:22:05.417Z,49.36
2022-10-07T15:25:08.862Z,49.30
2022-10-07T15:28:10.442Z,49.21
2022-10-07T15:31:12.104Z,49.24
2022-10-07T15:34:14.558Z,49.25
2022-10-07T15:37:17.559Z,49.40
2022-10-07T15:40:19.153Z,49.22
2022-10-07T15:43:20.803Z,49.28
2022-10-07T15:46:22.378Z,49.23
2022-10-07T15:49:23.972Z,49.28
2022-10-07T15:52:26.043Z,49.36
2022-10-07T15:55:27.577Z,49.25
2022-10-07T15:58:30.488Z,49.54
2022-10-07T16:01:32.822Z,49.23
2022-10-07T16:04:34.475Z,49.31
2022-10-07T16:07:36.195Z,49.20
2022-10-07T16:10:37.780Z,49.39
2022-10-07T16:13:44.166Z,49.31
2022-10-07T16:16:46.267Z,49.27
2022-10-07T16:19:48.139Z,49.23
2022-10-07T16:22:49.960Z,49.22
2022-10-07T16:25:51.481Z,49.34
2022-10-07T16:29:13.013Z,49.15
2022-10-07T16:32:14.595Z,49.25
2022-10-07T16:35:16.128Z,49.34
2022-10-07T16:38:18.251Z,49.36
2022-10-07T16:41:20.950Z,49.24
2022-10-07T16:44:23.672Z,49.37
2022-10-07T16:47:25.189Z,49.48
2022-10-07T16:50:26.753Z,49.29
2022-10-07T16:53:28.404Z,49.39
2022-10-07T16:56:33.036Z,49.16
2022-10-07T16:59:34.746Z,49.43
2022-10-07T17:02:36.286Z,49.55
2022-10-07T17:05:39.206Z,49.39
2022-10-07T17:08:47.460Z,49.32
2022-10-07T17:11:49.899Z,49.09
2022-10-07T17:14:51.490Z,49.21
2022-10-07T17:17:53.660Z,49.36
2022-10-07T17:20:55.677Z,49.27
2022-10-07T17:23:58.001Z,49.09
2022-10-07T17:26:59.553Z,49.24
2022-10-07T17:30:01.175Z,49.30
2022-10-07T17:33:02.795Z,49.45
2022-10-07T17:36:07.669Z,49.32
2022-10-07T17:39:09.539Z,49.42
2022-10-07T17:42:11.079Z,49.43
2022-10-07T17:45:12.612Z,49.06
2022-10-07T17:48:14.169Z,49.36
2022-10-07T17:51:17.619Z,49.19
2022-10-07T17:54:19.219Z,49.00
2022-10-07T17:57:21.426Z,49.04
2022-10-07T18:00:22.992Z,49.22
2022-10-07T18:03:26.622Z,49.10
2022-10-07T18:06:33.920Z,49.08
2022-10-07T18:09:35.508Z,49.22
2022-10-07T18:12:55.522Z,49.17
2022-10-07T18:16:01.878Z,49.25
2022-10-07T18:19:03.500Z,49.02
2022-10-07T18:22:05.460Z,49.49
2022-10-07T18:25:07.213Z,49.25
2022-10-07T18:28:08.826Z,48.86
2022-10-07T18:31:12.169Z,49.13
2022-10-07T18:34:14.066Z,48.92
2022-10-07T18:37:16.699Z,49.38
2022-10-07T18:40:18.403Z,49.30
2022-10-07T18:43:20.008Z,49.11
2022-10-07T18:46:23.116Z,49.18
2022-10-07T18:49:25.177Z,49.22
2022-10-07T18:52:26.697Z,48.95
2022-10-07T18:55:28.244Z,49.20
2022-10-07T18:58:34.525Z,49.10
2022-10-07T19:01:37.351Z,49.21
2022-10-07T19:04:40.575Z,49.11
2022-10-07T19:07:42.117Z,48.99
2022-10-07T19:10:43.715Z,49.13
2022-10-07T19:13:48.175Z,48.93
2022-10-07T19:16:49.866Z,49.17
2022-10-07T19:19:52.002Z,49.11
2022-10-07T19:22:53.508Z,48.95
2022-10-07T19:25:56.978Z,49.22
2022-10-07T19:28:58.519Z,49.20
2022-10-07T19:32:05.676Z,49.02
2022-10-07T19:35:09.462Z,49.14
2022-10-07T19:38:11.255Z,49.18
2022-10-07T19:41:16.960Z,49.19
2022-10-07T19:44:18.701Z,48.95
2022-10-07T19:47:20.272Z,48.94
2022-10-07T19:50:22.829Z,49.24
2022-10-07T19:53:24.357Z,48.86
2022-10-07T19:56:28.565Z,49.34
2022-10-07T19:59:30.116Z,49.07
2022-10-07T20:02:31.771Z,49.16
2022-10-07T20:05:33.358Z,48.89
2022-10-07T20:08:36.940Z,49.34
2022-10-07T20:11:38.606Z,49.16
2022-10-07T20:14:40.147Z,49.13
2022-10-07T20:17:42.228Z,49.03
2022-10-07T20:20:44.208Z,49.23
2022-10-07T20:23:48.212Z,49.16
2022-10-07T20:26:49.772Z,48.99
2022-10-07T20:30:02.227Z,49.49
2022-10-07T20:33:03.844Z,48.94
2022-10-07T20:36:06.722Z,49.10
2022-10-07T20:39:38.082Z,49.40
2022-10-07T20:42:44.655Z,49.30
2022-10-07T20:45:56.290Z,49.28
2022-10-07T20:48:58.148Z,49.15
2022-10-07T20:52:07.168Z,49.13
2022-10-07T20:55:09.712Z,49.15
2022-10-07T20:58:11.227Z,49.18
2022-10-07T21:01:13.498Z,49.05
2022-10-07T21:04:15.816Z,49.22
2022-10-07T21:07:19.172Z,49.27
2022-10-07T21:10:20.865Z,49.36
2022-10-07T21:13:22.374Z,49.27
2022-10-07T21:16:26.503Z,49.37
2022-10-07T21:19:28.160Z,49.42
2022-10-07T21:22:29.736Z,49.19
2022-10-07T21:25:32.641Z,49.21
2022-10-07T21:28:36.749Z,49.12
2022-10-07T21:31:38.354Z,49.40
2022-10-07T21:34:40.223Z,49.22
2022-10-07T21:37:42.420Z,49.34
2022-10-07T21:40:43.984Z,49.58
2022-10-07T21:43:50.218Z,49.30
2022-10-07T21:46:51.869Z,49.30
2022-10-07T21:49:53.397Z,49.35
2022-10-07T21:52:54.920Z,49.42
2022-10-07T21:55:56.746Z,49.25
2022-10-07T21:59:00.707Z,49.33
2022-10-07T22:02:02.650Z,49.62
2022-10-07T22:05:05.085Z,49.39
2022-10-07T22:08:33.991Z,49.40
2022-10-07T22:11:35.527Z,49.30
2022-10-07T22:14:37.562Z,49.38
2022-10-07T22:17:39.114Z,49.46
2022-10-07T22:20:40.901Z,49.05
2022-10-07T22:23:43.352Z,49.40
2022-10-07T22:26:47.520Z,49.10
2022-10-07T22:29:49.080Z,49.31
2022-10-07T22:32:50.627Z,49.58
2022-10-07T22:35:52.145Z,49.33
2022-10-07T22:38:55.640Z,49.52
2022-10-07T22:41:58.536Z,49.56
2022-10-07T22:45:00.089Z,49.63
2022-10-07T22:48:03.086Z,49.47
2022-10-07T22:51:08.156Z,49.50
2022-10-07T22:54:12.545Z,49.70
2022-10-07T22:57:14.092Z,49.44
2022-10-07T23:00:15.913Z,49.49
2022-10-07T23:03:17.637Z,49.79
2022-10-07T23:06:19.904Z,49.64
2022-10-07T23:09:21.566Z,49.95
2022-10-07T23:12:23.158Z,49.82
2022-10-07T23:15:24.732Z,49.66
2022-10-07T23:18:28.051Z,49.66
2022-10-07T23:21:34.189Z,49.93
2022-10-07T23:24:36.555Z,49.83
2022-10-07T23:27:38.886Z,49.68
2022-10-07T23:30:40.416Z,49.63
2022-10-07T23:33:42.000Z,49.80
2022-10-07T23:36:43.603Z,49.98
2022-10-07T23:39:45.121Z,49.82
2022-10-07T23:42:46.894Z,50.09
2022-10-07T23:45:50.135Z,50.02
2022-10-07T23:48:52.293Z,49.75
2022-10-07T23:51:53.810Z,49.98
2022-10-07T23:54:55.400Z,49.98
2022-10-07T23:57:56.889Z,50.11
